Andalusia, Alabama
Current Conditions -  °F | °C
As of 1:56 AM on Friday 24 Oct 2014 (Local Time) from K79J Reporting Station
Clear Clear  
Wind Chill: 57°   Ceiling: Unl
Heat Index: 57°   Visibility: 10mi
Dew Point: 47°   Wind: 3mph
Humidity: 69%   Direction: 340°NNW
Pressure: 30.05"   Gusts: NA
Location:  31.32°N, 86.49°W
Report Text: K79J 240656Z AUTO 34003KT 10SM CLR 14/08 A3005 RMK AO2 SLP171 T01390083
Loading
Personal Weather Stations






























Interactive Weather Map
Tropical Storm Tracking
New forecast layout! Learn more

10-Day Weather Forecast

Advertisements
Track Severe Weather on mobile